sensor_id;sensor_type;location;lat;lon;timestamp;temperature;humidity
8888;DHT22;4480;52.370;9.748;2023-06-24T00:01:54;16.00;99.90
8888;DHT22;4480;52.370;9.748;2023-06-24T00:04:21;16.00;99.90
8888;DHT22;4480;52.370;9.748;2023-06-24T00:06:49;15.90;99.90
8888;DHT22;4480;52.370;9.748;2023-06-24T00:09:17;15.90;99.90
8888;DHT22;4480;52.370;9.748;2023-06-24T00:11:44;15.80;99.90
8888;DHT22;4480;52.370;9.748;2023-06-24T00:14:12;15.80;99.90
8888;DHT22;4480;52.370;9.748;2023-06-24T00:16:40;15.70;99.90
8888;DHT22;4480;52.370;9.748;2023-06-24T00:19:08;15.60;99.90
8888;DHT22;4480;52.370;9.748;2023-06-24T00:21:35;15.60;99.90
8888;DHT22;4480;52.370;9.748;2023-06-24T00:24:03;15.50;99.90
8888;DHT22;4480;52.370;9.748;2023-06-24T00:26:30;15.50;99.90
8888;DHT22;4480;52.370;9.748;2023-06-24T00:28:58;15.40;99.90
8888;DHT22;4480;52.370;9.748;2023-06-24T00:31:25;15.40;99.90
8888;DHT22;4480;52.370;9.748;2023-06-24T00:33:52;15.30;99.90
8888;DHT22;4480;52.370;9.748;2023-06-24T00:36:20;15.20;99.90
8888;DHT22;4480;52.370;9.748;2023-06-24T00:38:47;15.10;99.90
8888;DHT22;4480;52.370;9.748;2023-06-24T00:41:16;15.10;99.90
8888;DHT22;4480;52.370;9.748;2023-06-24T00:43:44;15.00;99.90
8888;DHT22;4480;52.370;9.748;2023-06-24T00:46:11;15.00;99.90
8888;DHT22;4480;52.370;9.748;2023-06-24T00:48:41;14.90;99.90
8888;DHT22;4480;52.370;9.748;2023-06-24T00:51:07;14.90;99.90
8888;DHT22;4480;52.370;9.748;2023-06-24T00:53:35;14.80;99.90
8888;DHT22;4480;52.370;9.748;2023-06-24T00:56:02;14.80;99.90
8888;DHT22;4480;52.370;9.748;2023-06-24T00:58:32;14.70;99.90
8888;DHT22;4480;52.370;9.748;2023-06-24T01:01:02;14.70;99.90
8888;DHT22;4480;52.370;9.748;2023-06-24T01:03:31;14.60;99.90
8888;DHT22;4480;52.370;9.748;2023-06-24T01:05:58;14.60;99.90
8888;DHT22;4480;52.370;9.748;2023-06-24T01:08:25;14.50;99.90
8888;DHT22;4480;52.370;9.748;2023-06-24T01:10:53;14.50;99.90
8888;DHT22;4480;52.370;9.748;2023-06-24T01:13:20;14.50;99.90
8888;DHT22;4480;52.370;9.748;2023-06-24T01:15:48;14.50;99.90
8888;DHT22;4480;52.370;9.748;2023-06-24T01:18:21;14.40;99.90
8888;DHT22;4480;52.370;9.748;2023-06-24T01:20:55;14.40;99.90
8888;DHT22;4480;52.370;9.748;2023-06-24T01:23:45;14.30;99.90
8888;DHT22;4480;52.370;9.748;2023-06-24T01:26:21;14.30;99.90
8888;DHT22;4480;52.370;9.748;2023-06-24T01:29:18;14.30;99.90
8888;DHT22;4480;52.370;9.748;2023-06-24T01:31:51;14.30;99.90
8888;DHT22;4480;52.370;9.748;2023-06-24T01:34:24;14.20;99.90
8888;DHT22;4480;52.370;9.748;2023-06-24T01:37:00;14.20;99.90
8888;DHT22;4480;52.370;9.748;2023-06-24T01:39:28;14.20;99.90
8888;DHT22;4480;52.370;9.748;2023-06-24T01:42:03;14.20;99.90
8888;DHT22;4480;52.370;9.748;2023-06-24T01:44:33;14.20;99.90
8888;DHT22;4480;52.370;9.748;2023-06-24T01:47:05;14.10;99.90
8888;DHT22;4480;52.370;9.748;2023-06-24T01:49:39;14.10;99.90
8888;DHT22;4480;52.370;9.748;2023-06-24T01:52:08;14.10;99.90
8888;DHT22;4480;52.370;9.748;2023-06-24T01:54:35;14.00;99.90
8888;DHT22;4480;52.370;9.748;2023-06-24T01:57:04;14.00;99.90
8888;DHT22;4480;52.370;9.748;2023-06-24T01:59:32;13.90;99.90
8888;DHT22;4480;52.370;9.748;2023-06-24T02:02:01;13.90;99.90
8888;DHT22;4480;52.370;9.748;2023-06-24T02:04:29;13.90;99.90
8888;DHT22;4480;52.370;9.748;2023-06-24T02:06:58;13.80;99.90
8888;DHT22;4480;52.370;9.748;2023-06-24T02:09:26;13.80;99.90
8888;DHT22;4480;52.370;9.748;2023-06-24T02:11:55;13.80;99.90
8888;DHT22;4480;52.370;9.748;2023-06-24T02:14:22;13.80;99.90
8888;DHT22;4480;52.370;9.748;2023-06-24T02:16:50;13.70;99.90
8888;DHT22;4480;52.370;9.748;2023-06-24T02:19:26;13.70;99.90
8888;DHT22;4480;52.370;9.748;2023-06-24T02:21:54;13.70;99.90
8888;DHT22;4480;52.370;9.748;2023-06-24T02:24:23;13.70;99.90
8888;DHT22;4480;52.370;9.748;2023-06-24T02:26:50;13.60;99.90
8888;DHT22;4480;52.370;9.748;2023-06-24T02:29:18;13.60;99.90
8888;DHT22;4480;52.370;9.748;2023-06-24T02:31:45;13.60;99.90
8888;DHT22;4480;52.370;9.748;2023-06-24T02:34:12;13.60;99.90
8888;DHT22;4480;52.370;9.748;2023-06-24T02:36:40;13.50;99.90
8888;DHT22;4480;52.370;9.748;2023-06-24T02:39:06;13.60;99.90
8888;DHT22;4480;52.370;9.748;2023-06-24T02:41:33;13.50;99.90
8888;DHT22;4480;52.370;9.748;2023-06-24T02:44:01;13.50;99.90
8888;DHT22;4480;52.370;9.748;2023-06-24T02:46:28;13.50;99.90
8888;DHT22;4480;52.370;9.748;2023-06-24T02:48:57;13.50;99.90
8888;DHT22;4480;52.370;9.748;2023-06-24T02:51:25;13.40;99.90
8888;DHT22;4480;52.370;9.748;2023-06-24T02:53:54;13.40;99.90
8888;DHT22;4480;52.370;9.748;2023-06-24T02:56:24;13.40;99.90
8888;DHT22;4480;52.370;9.748;2023-06-24T02:58:52;13.40;99.90
8888;DHT22;4480;52.370;9.748;2023-06-24T03:01:20;13.40;99.90
8888;DHT22;4480;52.370;9.748;2023-06-24T03:03:51;13.30;99.90
8888;DHT22;4480;52.370;9.748;2023-06-24T03:06:20;13.30;99.90
8888;DHT22;4480;52.370;9.748;2023-06-24T03:08:47;13.30;99.90
8888;DHT22;4480;52.370;9.748;2023-06-24T03:11:16;13.40;99.90
8888;DHT22;4480;52.370;9.748;2023-06-24T03:13:43;13.40;99.90
8888;DHT22;4480;52.370;9.748;2023-06-24T03:16:10;13.40;99.90
8888;DHT22;4480;52.370;9.748;2023-06-24T03:18:40;13.40;99.90
8888;DHT22;4480;52.370;9.748;2023-06-24T03:21:07;13.40;99.90
8888;DHT22;4480;52.370;9.748;2023-06-24T03:23:34;13.40;99.90
8888;DHT22;4480;52.370;9.748;2023-06-24T03:26:01;13.40;99.90
8888;DHT22;4480;52.370;9.748;2023-06-24T03:28:30;13.50;99.90
8888;DHT22;4480;52.370;9.748;2023-06-24T03:30:57;13.50;99.90
8888;DHT22;4480;52.370;9.748;2023-06-24T03:33:24;13.50;99.90
8888;DHT22;4480;52.370;9.748;2023-06-24T03:35:52;13.50;99.90
8888;DHT22;4480;52.370;9.748;2023-06-24T03:38:19;13.60;99.90
8888;DHT22;4480;52.370;9.748;2023-06-24T03:40:46;13.60;99.90
8888;DHT22;4480;52.370;9.748;2023-06-24T03:43:12;13.70;99.90
8888;DHT22;4480;52.370;9.748;2023-06-24T03:45:40;13.70;99.90
8888;DHT22;4480;52.370;9.748;2023-06-24T03:48:07;13.80;99.90
8888;DHT22;4480;52.370;9.748;2023-06-24T03:50:34;13.80;99.90
8888;DHT22;4480;52.370;9.748;2023-06-24T03:53:01;13.90;99.90
8888;DHT22;4480;52.370;9.748;2023-06-24T03:55:28;14.20;99.90
8888;DHT22;4480;52.370;9.748;2023-06-24T03:57:54;14.70;99.90
8888;DHT22;4480;52.370;9.748;2023-06-24T04:00:21;15.30;99.90
8888;DHT22;4480;52.370;9.748;2023-06-24T04:02:50;15.90;99.90
8888;DHT22;4480;52.370;9.748;2023-06-24T04:05:17;16.50;99.90
8888;DHT22;4480;52.370;9.748;2023-06-24T04:07:44;16.90;99.90
8888;DHT22;4480;52.370;9.748;2023-06-24T04:11:51;17.50;99.90
8888;DHT22;4480;52.370;9.748;2023-06-24T04:14:18;17.80;99.90
8888;DHT22;4480;52.370;9.748;2023-06-24T04:16:44;18.20;99.90
8888;DHT22;4480;52.370;9.748;2023-06-24T04:19:11;18.50;99.90
8888;DHT22;4480;52.370;9.748;2023-06-24T04:21:38;18.90;99.90
8888;DHT22;4480;52.370;9.748;2023-06-24T04:24:05;19.20;99.90
8888;DHT22;4480;52.370;9.748;2023-06-24T04:26:32;19.40;99.90
8888;DHT22;4480;52.370;9.748;2023-06-24T04:29:00;19.70;99.90
8888;DHT22;4480;52.370;9.748;2023-06-24T04:31:27;19.90;99.90
8888;DHT22;4480;52.370;9.748;2023-06-24T04:33:54;20.10;99.90
8888;DHT22;4480;52.370;9.748;2023-06-24T04:36:21;20.20;99.90
8888;DHT22;4480;52.370;9.748;2023-06-24T04:38:47;20.30;99.90
8888;DHT22;4480;52.370;9.748;2023-06-24T04:41:14;20.40;99.90
8888;DHT22;4480;52.370;9.748;2023-06-24T04:43:41;20.50;99.90
8888;DHT22;4480;52.370;9.748;2023-06-24T04:46:09;20.60;99.90
8888;DHT22;4480;52.370;9.748;2023-06-24T04:48:36;20.80;99.80
8888;DHT22;4480;52.370;9.748;2023-06-24T04:51:03;21.00;98.80
8888;DHT22;4480;52.370;9.748;2023-06-24T04:53:29;21.00;97.40
8888;DHT22;4480;52.370;9.748;2023-06-24T04:55:56;21.00;96.90
8888;DHT22;4480;52.370;9.748;2023-06-24T04:58:23;21.10;96.10
8888;DHT22;4480;52.370;9.748;2023-06-24T05:00:50;21.30;94.90
8888;DHT22;4480;52.370;9.748;2023-06-24T05:03:18;21.60;94.10
8888;DHT22;4480;52.370;9.748;2023-06-24T05:05:44;21.80;92.60
8888;DHT22;4480;52.370;9.748;2023-06-24T05:08:11;22.00;91.20
8888;DHT22;4480;52.370;9.748;2023-06-24T05:10:38;22.10;90.00
8888;DHT22;4480;52.370;9.748;2023-06-24T05:13:05;22.20;87.80
8888;DHT22;4480;52.370;9.748;2023-06-24T05:15:31;22.10;85.80
8888;DHT22;4480;52.370;9.748;2023-06-24T05:17:58;22.00;85.80
8888;DHT22;4480;52.370;9.748;2023-06-24T05:20:26;21.90;85.70
8888;DHT22;4480;52.370;9.748;2023-06-24T05:22:53;22.00;85.10
8888;DHT22;4480;52.370;9.748;2023-06-24T05:25:20;22.00;84.00
8888;DHT22;4480;52.370;9.748;2023-06-24T05:27:47;22.00;83.50
8888;DHT22;4480;52.370;9.748;2023-06-24T05:30:14;22.20;83.40
8888;DHT22;4480;52.370;9.748;2023-06-24T05:32:41;22.30;81.90
8888;DHT22;4480;52.370;9.748;2023-06-24T05:35:08;22.30;81.20
8888;DHT22;4480;52.370;9.748;2023-06-24T05:37:36;22.30;80.70
8888;DHT22;4480;52.370;9.748;2023-06-24T05:40:04;22.20;80.70
8888;DHT22;4480;52.370;9.748;2023-06-24T05:42:32;22.10;80.70
8888;DHT22;4480;52.370;9.748;2023-06-24T05:44:59;22.10;80.50
8888;DHT22;4480;52.370;9.748;2023-06-24T05:47:25;22.00;80.60
8888;DHT22;4480;52.370;9.748;2023-06-24T05:49:52;22.10;81.10
8888;DHT22;4480;52.370;9.748;2023-06-24T05:52:19;22.10;81.00
8888;DHT22;4480;52.370;9.748;2023-06-24T05:54:47;22.10;81.20
8888;DHT22;4480;52.370;9.748;2023-06-24T05:57:14;22.20;81.00
8888;DHT22;4480;52.370;9.748;2023-06-24T05:59:40;22.30;80.70
8888;DHT22;4480;52.370;9.748;2023-06-24T06:02:07;22.30;80.10
8888;DHT22;4480;52.370;9.748;2023-06-24T06:04:34;22.30;79.50
8888;DHT22;4480;52.370;9.748;2023-06-24T06:07:01;22.20;79.70
8888;DHT22;4480;52.370;9.748;2023-06-24T06:09:28;22.10;79.60
8888;DHT22;4480;52.370;9.748;2023-06-24T06:11:56;22.00;80.30
8888;DHT22;4480;52.370;9.748;2023-06-24T06:14:22;22.00;80.20
8888;DHT22;4480;52.370;9.748;2023-06-24T06:16:49;22.10;80.20
8888;DHT22;4480;52.370;9.748;2023-06-24T06:19:16;22.10;80.00
8888;DHT22;4480;52.370;9.748;2023-06-24T06:21:43;22.20;80.20
8888;DHT22;4480;52.370;9.748;2023-06-24T06:24:10;22.20;80.10
8888;DHT22;4480;52.370;9.748;2023-06-24T06:26:41;22.20;79.30
8888;DHT22;4480;52.370;9.748;2023-06-24T06:29:10;22.10;79.10
8888;DHT22;4480;52.370;9.748;2023-06-24T06:31:36;21.90;78.90
8888;DHT22;4480;52.370;9.748;2023-06-24T06:34:03;21.60;80.10
8888;DHT22;4480;52.370;9.748;2023-06-24T06:36:30;21.50;81.20
8888;DHT22;4480;52.370;9.748;2023-06-24T06:38:57;21.40;82.00
8888;DHT22;4480;52.370;9.748;2023-06-24T06:41:24;21.40;82.70
8888;DHT22;4480;52.370;9.748;2023-06-24T06:43:51;21.50;82.50
8888;DHT22;4480;52.370;9.748;2023-06-24T06:46:20;21.60;81.90
8888;DHT22;4480;52.370;9.748;2023-06-24T06:48:47;21.60;81.50
8888;DHT22;4480;52.370;9.748;2023-06-24T06:51:13;21.60;81.40
8888;DHT22;4480;52.370;9.748;2023-06-24T06:53:40;21.60;81.00
8888;DHT22;4480;52.370;9.748;2023-06-24T06:56:07;21.60;80.40
8888;DHT22;4480;52.370;9.748;2023-06-24T06:58:34;21.30;80.00
8888;DHT22;4480;52.370;9.748;2023-06-24T07:01:00;21.20;81.10
8888;DHT22;4480;52.370;9.748;2023-06-24T07:03:31;21.10;81.80
8888;DHT22;4480;52.370;9.748;2023-06-24T07:05:58;21.00;82.20
8888;DHT22;4480;52.370;9.748;2023-06-24T07:08:25;21.00;82.70
8888;DHT22;4480;52.370;9.748;2023-06-24T07:10:52;21.10;82.80
8888;DHT22;4480;52.370;9.748;2023-06-24T07:13:19;21.30;82.30
8888;DHT22;4480;52.370;9.748;2023-06-24T07:15:45;21.30;81.20
8888;DHT22;4480;52.370;9.748;2023-06-24T07:18:12;21.40;81.50
8888;DHT22;4480;52.370;9.748;2023-06-24T07:20:40;21.50;81.10
8888;DHT22;4480;52.370;9.748;2023-06-24T07:23:07;21.70;79.60
8888;DHT22;4480;52.370;9.748;2023-06-24T07:25:35;21.90;78.40
8888;DHT22;4480;52.370;9.748;2023-06-24T07:28:02;22.00;77.20
8888;DHT22;4480;52.370;9.748;2023-06-24T07:30:29;21.90;75.70
8888;DHT22;4480;52.370;9.748;2023-06-24T07:32:56;21.80;75.40
8888;DHT22;4480;52.370;9.748;2023-06-24T07:35:23;21.70;74.50
8888;DHT22;4480;52.370;9.748;2023-06-24T07:37:51;21.70;74.30
8888;DHT22;4480;52.370;9.748;2023-06-24T07:40:18;21.70;74.20
8888;DHT22;4480;52.370;9.748;2023-06-24T07:42:44;21.70;73.70
8888;DHT22;4480;52.370;9.748;2023-06-24T07:45:11;21.80;73.40
8888;DHT22;4480;52.370;9.748;2023-06-24T07:47:38;22.00;72.80
8888;DHT22;4480;52.370;9.748;2023-06-24T07:50:05;22.10;72.10
8888;DHT22;4480;52.370;9.748;2023-06-24T07:52:32;22.10;71.30
8888;DHT22;4480;52.370;9.748;2023-06-24T07:55:00;22.00;70.60
8888;DHT22;4480;52.370;9.748;2023-06-24T07:57:27;22.00;70.70
8888;DHT22;4480;52.370;9.748;2023-06-24T07:59:54;22.00;69.90
8888;DHT22;4480;52.370;9.748;2023-06-24T08:02:21;22.00;69.50
8888;DHT22;4480;52.370;9.748;2023-06-24T08:04:49;22.00;69.30
8888;DHT22;4480;52.370;9.748;2023-06-24T08:07:16;22.00;69.00
8888;DHT22;4480;52.370;9.748;2023-06-24T08:09:43;22.10;69.00
8888;DHT22;4480;52.370;9.748;2023-06-24T08:12:11;22.20;68.10
8888;DHT22;4480;52.370;9.748;2023-06-24T08:14:38;22.30;67.90
8888;DHT22;4480;52.370;9.748;2023-06-24T08:17:05;22.30;67.10
8888;DHT22;4480;52.370;9.748;2023-06-24T08:19:32;22.40;66.20
8888;DHT22;4480;52.370;9.748;2023-06-24T08:21:58;22.50;65.50
8888;DHT22;4480;52.370;9.748;2023-06-24T08:24:25;22.60;65.10
8888;DHT22;4480;52.370;9.748;2023-06-24T08:26:52;22.60;64.70
8888;DHT22;4480;52.370;9.748;2023-06-24T08:29:20;22.60;61.80
8888;DHT22;4480;52.370;9.748;2023-06-24T08:31:47;22.50;60.60
8888;DHT22;4480;52.370;9.748;2023-06-24T08:34:14;22.60;60.20
8888;DHT22;4480;52.370;9.748;2023-06-24T08:36:41;22.70;60.00
8888;DHT22;4480;52.370;9.748;2023-06-24T08:39:08;23.00;59.90
8888;DHT22;4480;52.370;9.748;2023-06-24T08:41:34;23.30;59.20
8888;DHT22;4480;52.370;9.748;2023-06-24T08:44:01;23.50;58.50
8888;DHT22;4480;52.370;9.748;2023-06-24T08:46:31;23.40;58.40
8888;DHT22;4480;52.370;9.748;2023-06-24T08:49:02;23.40;58.70
8888;DHT22;4480;52.370;9.748;2023-06-24T08:51:35;23.50;58.80
8888;DHT22;4480;52.370;9.748;2023-06-24T08:54:05;23.50;58.90
8888;DHT22;4480;52.370;9.748;2023-06-24T08:56:33;23.60;58.60
8888;DHT22;4480;52.370;9.748;2023-06-24T08:59:00;23.50;58.70
8888;DHT22;4480;52.370;9.748;2023-06-24T09:01:28;23.60;58.90
8888;DHT22;4480;52.370;9.748;2023-06-24T09:03:57;23.60;58.70
8888;DHT22;4480;52.370;9.748;2023-06-24T09:06:23;23.70;58.70
8888;DHT22;4480;52.370;9.748;2023-06-24T09:08:53;23.80;58.50
8888;DHT22;4480;52.370;9.748;2023-06-24T09:11:23;23.80;58.50
8888;DHT22;4480;52.370;9.748;2023-06-24T09:13:54;23.80;59.10
8888;DHT22;4480;52.370;9.748;2023-06-24T09:16:22;23.80;58.30
8888;DHT22;4480;52.370;9.748;2023-06-24T09:18:49;23.80;58.20
8888;DHT22;4480;52.370;9.748;2023-06-24T09:21:23;23.90;58.40
8888;DHT22;4480;52.370;9.748;2023-06-24T09:23:52;24.10;58.50
8888;DHT22;4480;52.370;9.748;2023-06-24T09:26:19;24.30;57.80
8888;DHT22;4480;52.370;9.748;2023-06-24T09:28:47;24.30;57.10
8888;DHT22;4480;52.370;9.748;2023-06-24T09:31:15;24.30;56.80
8888;DHT22;4480;52.370;9.748;2023-06-24T09:33:42;24.40;56.70
8888;DHT22;4480;52.370;9.748;2023-06-24T09:36:11;24.50;56.40
8888;DHT22;4480;52.370;9.748;2023-06-24T09:38:41;24.60;56.20
8888;DHT22;4480;52.370;9.748;2023-06-24T09:41:09;24.70;56.00
8888;DHT22;4480;52.370;9.748;2023-06-24T09:43:37;24.80;55.60
8888;DHT22;4480;52.370;9.748;2023-06-24T09:46:06;24.90;55.30
8888;DHT22;4480;52.370;9.748;2023-06-24T09:48:33;24.90;55.10
8888;DHT22;4480;52.370;9.748;2023-06-24T09:51:01;24.90;54.90
8888;DHT22;4480;52.370;9.748;2023-06-24T09:53:30;25.00;54.90
8888;DHT22;4480;52.370;9.748;2023-06-24T09:55:59;25.00;54.50
8888;DHT22;4480;52.370;9.748;2023-06-24T09:58:28;25.00;54.60
8888;DHT22;4480;52.370;9.748;2023-06-24T10:00:58;25.10;54.60
8888;DHT22;4480;52.370;9.748;2023-06-24T10:03:28;25.20;55.20
8888;DHT22;4480;52.370;9.748;2023-06-24T10:05:55;25.20;54.40
8888;DHT22;4480;52.370;9.748;2023-06-24T10:08:24;25.30;54.10
8888;DHT22;4480;52.370;9.748;2023-06-24T10:10:51;25.30;54.20
8888;DHT22;4480;52.370;9.748;2023-06-24T10:13:19;25.40;54.20
8888;DHT22;4480;52.370;9.748;2023-06-24T10:15:46;25.50;54.20
8888;DHT22;4480;52.370;9.748;2023-06-24T10:18:32;25.40;54.10
8888;DHT22;4480;52.370;9.748;2023-06-24T10:20:59;25.50;54.40
8888;DHT22;4480;52.370;9.748;2023-06-24T10:23:30;25.70;54.20
8888;DHT22;4480;52.370;9.748;2023-06-24T10:25:57;25.80;53.90
8888;DHT22;4480;52.370;9.748;2023-06-24T10:28:25;25.80;54.10
8888;DHT22;4480;52.370;9.748;2023-06-24T10:30:56;25.80;54.50
8888;DHT22;4480;52.370;9.748;2023-06-24T10:33:24;25.80;54.50
8888;DHT22;4480;52.370;9.748;2023-06-24T10:35:51;25.90;54.50
8888;DHT22;4480;52.370;9.748;2023-06-24T10:38:18;25.90;54.00
8888;DHT22;4480;52.370;9.748;2023-06-24T10:40:45;25.90;54.00
8888;DHT22;4480;52.370;9.748;2023-06-24T10:43:29;26.00;53.90
8888;DHT22;4480;52.370;9.748;2023-06-24T10:45:57;26.00;53.90
8888;DHT22;4480;52.370;9.748;2023-06-24T10:48:25;26.10;54.10
8888;DHT22;4480;52.370;9.748;2023-06-24T10:50:51;26.20;53.80
8888;DHT22;4480;52.370;9.748;2023-06-24T10:53:18;26.20;53.80
8888;DHT22;4480;52.370;9.748;2023-06-24T10:55:45;26.20;53.60
8888;DHT22;4480;52.370;9.748;2023-06-24T10:58:14;26.20;53.60
8888;DHT22;4480;52.370;9.748;2023-06-24T11:00:42;26.20;53.60
8888;DHT22;4480;52.370;9.748;2023-06-24T11:03:14;26.20;53.20
8888;DHT22;4480;52.370;9.748;2023-06-24T11:05:41;26.30;53.00
8888;DHT22;4480;52.370;9.748;2023-06-24T11:08:08;26.50;52.90
8888;DHT22;4480;52.370;9.748;2023-06-24T11:10:42;26.50;52.70
8888;DHT22;4480;52.370;9.748;2023-06-24T11:13:10;26.50;52.50
8888;DHT22;4480;52.370;9.748;2023-06-24T11:15:38;26.50;52.30
8888;DHT22;4480;52.370;9.748;2023-06-24T11:18:07;26.50;52.30
8888;DHT22;4480;52.370;9.748;2023-06-24T11:20:35;26.50;52.20
8888;DHT22;4480;52.370;9.748;2023-06-24T11:23:06;26.50;52.60
8888;DHT22;4480;52.370;9.748;2023-06-24T11:25:38;26.50;52.70
8888;DHT22;4480;52.370;9.748;2023-06-24T11:28:12;26.70;52.70
8888;DHT22;4480;52.370;9.748;2023-06-24T11:30:39;26.80;52.40
8888;DHT22;4480;52.370;9.748;2023-06-24T11:33:07;26.90;52.30
8888;DHT22;4480;52.370;9.748;2023-06-24T11:35:34;27.00;51.30
8888;DHT22;4480;52.370;9.748;2023-06-24T11:38:02;27.10;51.20
8888;DHT22;4480;52.370;9.748;2023-06-24T11:40:31;27.30;51.00
8888;DHT22;4480;52.370;9.748;2023-06-24T11:43:00;27.20;50.90
8888;DHT22;4480;52.370;9.748;2023-06-24T11:45:27;27.20;51.10
8888;DHT22;4480;52.370;9.748;2023-06-24T11:48:02;27.40;51.30
8888;DHT22;4480;52.370;9.748;2023-06-24T11:50:31;27.50;50.80
8888;DHT22;4480;52.370;9.748;2023-06-24T11:52:58;27.60;50.60
8888;DHT22;4480;52.370;9.748;2023-06-24T11:55:25;27.70;50.10
8888;DHT22;4480;52.370;9.748;2023-06-24T11:57:55;27.90;50.20
8888;DHT22;4480;52.370;9.748;2023-06-24T12:00:22;28.30;49.50
8888;DHT22;4480;52.370;9.748;2023-06-24T12:02:50;28.70;48.30
8888;DHT22;4480;52.370;9.748;2023-06-24T12:05:25;29.00;47.50
8888;DHT22;4480;52.370;9.748;2023-06-24T12:07:59;29.40;46.80
8888;DHT22;4480;52.370;9.748;2023-06-24T12:10:27;29.90;45.70
8888;DHT22;4480;52.370;9.748;2023-06-24T12:12:55;30.40;45.10
8888;DHT22;4480;52.370;9.748;2023-06-24T12:15:22;30.70;44.10
8888;DHT22;4480;52.370;9.748;2023-06-24T12:17:49;31.00;43.60
8888;DHT22;4480;52.370;9.748;2023-06-24T12:20:16;31.20;43.20
8888;DHT22;4480;52.370;9.748;2023-06-24T12:22:43;31.30;42.90
8888;DHT22;4480;52.370;9.748;2023-06-24T12:25:12;30.80;43.10
8888;DHT22;4480;52.370;9.748;2023-06-24T12:27:39;30.60;43.70
8888;DHT22;4480;52.370;9.748;2023-06-24T12:30:07;30.80;43.40
8888;DHT22;4480;52.370;9.748;2023-06-24T12:32:34;31.10;42.90
8888;DHT22;4480;52.370;9.748;2023-06-24T12:35:01;31.80;42.20
8888;DHT22;4480;52.370;9.748;2023-06-24T12:37:30;32.30;41.30
8888;DHT22;4480;52.370;9.748;2023-06-24T12:39:57;32.80;40.70
8888;DHT22;4480;52.370;9.748;2023-06-24T12:42:25;32.70;40.30
8888;DHT22;4480;52.370;9.748;2023-06-24T12:44:52;32.50;40.70
8888;DHT22;4480;52.370;9.748;2023-06-24T12:47:18;32.30;40.80
8888;DHT22;4480;52.370;9.748;2023-06-24T12:49:45;32.00;41.30
8888;DHT22;4480;52.370;9.748;2023-06-24T12:52:12;31.80;41.70
8888;DHT22;4480;52.370;9.748;2023-06-24T12:54:40;31.40;41.80
8888;DHT22;4480;52.370;9.748;2023-06-24T12:57:06;31.00;42.20
8888;DHT22;4480;52.370;9.748;2023-06-24T12:59:35;30.60;42.80
8888;DHT22;4480;52.370;9.748;2023-06-24T13:02:01;30.30;43.20
8888;DHT22;4480;52.370;9.748;2023-06-24T13:04:28;29.80;43.60
8888;DHT22;4480;52.370;9.748;2023-06-24T13:06:55;29.30;44.30
8888;DHT22;4480;52.370;9.748;2023-06-24T13:09:22;28.70;45.00
8888;DHT22;4480;52.370;9.748;2023-06-24T13:11:49;28.40;45.80
8888;DHT22;4480;52.370;9.748;2023-06-24T13:14:16;28.10;46.50
8888;DHT22;4480;52.370;9.748;2023-06-24T13:16:45;27.90;47.00
8888;DHT22;4480;52.370;9.748;2023-06-24T13:19:11;27.80;47.20
8888;DHT22;4480;52.370;9.748;2023-06-24T13:21:39;27.80;47.30
8888;DHT22;4480;52.370;9.748;2023-06-24T13:24:07;27.70;47.40
8888;DHT22;4480;52.370;9.748;2023-06-24T13:26:33;27.60;47.70
8888;DHT22;4480;52.370;9.748;2023-06-24T13:29:00;27.60;47.80
8888;DHT22;4480;52.370;9.748;2023-06-24T13:31:28;27.80;47.90
8888;DHT22;4480;52.370;9.748;2023-06-24T13:33:56;27.90;47.60
8888;DHT22;4480;52.370;9.748;2023-06-24T13:36:29;28.10;47.50
8888;DHT22;4480;52.370;9.748;2023-06-24T13:38:57;28.30;47.10
8888;DHT22;4480;52.370;9.748;2023-06-24T13:41:24;28.40;46.70
8888;DHT22;4480;52.370;9.748;2023-06-24T13:43:55;28.50;46.10
8888;DHT22;4480;52.370;9.748;2023-06-24T13:46:21;28.50;45.20
8888;DHT22;4480;52.370;9.748;2023-06-24T13:48:48;28.50;44.60
8888;DHT22;4480;52.370;9.748;2023-06-24T13:51:17;28.60;44.50
8888;DHT22;4480;52.370;9.748;2023-06-24T13:53:44;28.60;44.40
8888;DHT22;4480;52.370;9.748;2023-06-24T13:56:11;28.70;44.60
8888;DHT22;4480;52.370;9.748;2023-06-24T13:58:38;28.80;43.90
8888;DHT22;4480;52.370;9.748;2023-06-24T14:01:04;28.80;43.00
8888;DHT22;4480;52.370;9.748;2023-06-24T14:03:31;28.70;42.70
8888;DHT22;4480;52.370;9.748;2023-06-24T14:05:58;28.70;42.90
8888;DHT22;4480;52.370;9.748;2023-06-24T14:08:28;28.70;42.60
8888;DHT22;4480;52.370;9.748;2023-06-24T14:10:55;28.60;42.40
8888;DHT22;4480;52.370;9.748;2023-06-24T14:13:21;28.70;42.50
8888;DHT22;4480;52.370;9.748;2023-06-24T14:15:48;28.80;42.60
8888;DHT22;4480;52.370;9.748;2023-06-24T14:18:15;28.90;42.60
8888;DHT22;4480;52.370;9.748;2023-06-24T14:20:42;29.10;42.70
8888;DHT22;4480;52.370;9.748;2023-06-24T14:23:09;29.30;42.90
8888;DHT22;4480;52.370;9.748;2023-06-24T14:25:37;29.50;42.90
8888;DHT22;4480;52.370;9.748;2023-06-24T14:28:04;29.60;42.40
8888;DHT22;4480;52.370;9.748;2023-06-24T14:30:31;29.50;42.20
8888;DHT22;4480;52.370;9.748;2023-06-24T14:32:58;29.50;42.20
8888;DHT22;4480;52.370;9.748;2023-06-24T14:35:25;29.40;42.30
8888;DHT22;4480;52.370;9.748;2023-06-24T14:37:52;29.40;42.40
8888;DHT22;4480;52.370;9.748;2023-06-24T14:40:19;29.40;43.00
8888;DHT22;4480;52.370;9.748;2023-06-24T14:42:47;29.30;42.50
8888;DHT22;4480;52.370;9.748;2023-06-24T14:45:14;29.20;42.70
8888;DHT22;4480;52.370;9.748;2023-06-24T14:47:40;29.20;42.60
8888;DHT22;4480;52.370;9.748;2023-06-24T14:50:08;29.10;42.70
8888;DHT22;4480;52.370;9.748;2023-06-24T14:52:34;29.00;43.10
8888;DHT22;4480;52.370;9.748;2023-06-24T14:55:01;29.00;43.30
8888;DHT22;4480;52.370;9.748;2023-06-24T14:57:28;29.00;43.30
8888;DHT22;4480;52.370;9.748;2023-06-24T14:59:56;29.10;43.30
8888;DHT22;4480;52.370;9.748;2023-06-24T15:02:23;29.00;43.20
8888;DHT22;4480;52.370;9.748;2023-06-24T15:04:51;28.80;43.30
8888;DHT22;4480;52.370;9.748;2023-06-24T15:07:18;28.70;43.50
8888;DHT22;4480;52.370;9.748;2023-06-24T15:09:45;28.70;43.60
8888;DHT22;4480;52.370;9.748;2023-06-24T15:12:11;28.80;43.50
8888;DHT22;4480;52.370;9.748;2023-06-24T15:14:38;29.00;43.50
8888;DHT22;4480;52.370;9.748;2023-06-24T15:17:06;29.10;43.40
8888;DHT22;4480;52.370;9.748;2023-06-24T15:19:33;29.30;43.20
8888;DHT22;4480;52.370;9.748;2023-06-24T15:22:00;29.30;43.20
8888;DHT22;4480;52.370;9.748;2023-06-24T15:24:27;29.20;43.20
8888;DHT22;4480;52.370;9.748;2023-06-24T15:26:53;29.30;43.50
8888;DHT22;4480;52.370;9.748;2023-06-24T15:29:20;29.30;43.30
8888;DHT22;4480;52.370;9.748;2023-06-24T15:31:47;29.30;43.20
8888;DHT22;4480;52.370;9.748;2023-06-24T15:34:15;29.30;43.30
8888;DHT22;4480;52.370;9.748;2023-06-24T15:36:42;29.50;43.50
8888;DHT22;4480;52.370;9.748;2023-06-24T15:39:09;29.50;43.30
8888;DHT22;4480;52.370;9.748;2023-06-24T15:41:36;29.50;42.90
8888;DHT22;4480;52.370;9.748;2023-06-24T15:44:04;29.50;42.70
8888;DHT22;4480;52.370;9.748;2023-06-24T15:46:31;29.30;42.70
8888;DHT22;4480;52.370;9.748;2023-06-24T15:48:58;29.10;42.90
8888;DHT22;4480;52.370;9.748;2023-06-24T15:51:26;29.00;43.10
8888;DHT22;4480;52.370;9.748;2023-06-24T15:53:53;29.00;43.40
8888;DHT22;4480;52.370;9.748;2023-06-24T15:56:20;28.90;43.50
8888;DHT22;4480;52.370;9.748;2023-06-24T15:58:47;28.80;43.70
8888;DHT22;4480;52.370;9.748;2023-06-24T16:01:14;28.80;43.90
8888;DHT22;4480;52.370;9.748;2023-06-24T16:03:40;28.80;44.00
8888;DHT22;4480;52.370;9.748;2023-06-24T16:06:07;28.80;43.90
8888;DHT22;4480;52.370;9.748;2023-06-24T16:08:35;28.90;43.70